Ana Sayfa
METAR-TAF:

METAR-TAF

Havaalanları :

Chichén Itzá, Meksika

Enlem: 20-38-30N, Boylam: 088-26-58W, yükseklik: 31 m

Güncel hava durumu gözlemi

Rapor saat 13:44 UTC de 52 dakika önce yapıldı.
Rüzgar doğu/güneydoğudan 10 kt
Sıcaklık 27°C
Nem 84%
Basınç 1014 hPa
Görüş mesafesi: 12.9 km
Açık gökyüzü

METAR: MMCT 231344Z 12010KT 8SM SKC 27/24 A2995

Saat: 09:36 (14:36 UTC)


TAF: eksik

4.000'den fazla havaalanı için hava durumu gözlemleri ve tahminleri (METAR ve TAF raporları).

Kullanılabilir istasyonlar harita üzerinde sarı ve kırmızı noktalarla gösterilir.

İstasyonun adını görmek için fareyi noktanın üzerinde gezdirin.

Sonrasında hava gözlem ve tahminlerini görmek için tıklayın.

Haritayı değiştirmek için: yaklaştırmak için siyah artı işaretli yeşil düğmeye ve uzaklaştırmak için de eksi işaretli düğmeye hızla tıklayın; bitişik haritalar için yeşil okları kullanın.


METAR-TAF: